createdAt,value
2019-01-14T00:00:26.253Z,88.32
2019-01-14T00:04:29.313Z,88.43
2019-01-14T00:08:30.835Z,88.59
2019-01-14T00:12:31.915Z,88.62
2019-01-14T00:16:33.380Z,88.73
2019-01-14T00:20:34.450Z,88.77
2019-01-14T00:24:35.546Z,88.81
2019-01-14T00:28:36.886Z,88.83
2019-01-14T00:32:38.459Z,88.96
2019-01-14T00:36:39.619Z,89.04
2019-01-14T00:40:40.640Z,89.12
2019-01-14T00:44:41.688Z,89.10
2019-01-14T00:48:42.644Z,89.11
2019-01-14T00:52:44.030Z,89.14
2019-01-14T00:56:45.136Z,89.19
2019-01-14T01:00:46.472Z,89.21
2019-01-14T01:04:48.087Z,89.17
2019-01-14T01:08:50.231Z,89.18
2019-01-14T01:12:51.431Z,89.21
2019-01-14T01:16:52.565Z,89.28
2019-01-14T01:20:53.723Z,89.35
2019-01-14T01:24:55.811Z,89.37
2019-01-14T01:28:56.847Z,89.34
2019-01-14T01:32:57.891Z,89.29
2019-01-14T01:36:58.841Z,89.35
2019-01-14T01:40:59.884Z,89.26
2019-01-14T01:45:00.898Z,89.28
2019-01-14T01:49:02.268Z,89.13
2019-01-14T01:53:03.472Z,89.22
2019-01-14T01:57:04.955Z,89.20
2019-01-14T02:01:06.248Z,89.26
2019-01-14T02:05:10.127Z,89.22
2019-01-14T02:09:11.545Z,89.14
2019-01-14T02:13:12.819Z,89.12
2019-01-14T02:17:14.039Z,89.15
2019-01-14T02:21:16.159Z,88.90
2019-01-14T02:25:18.204Z,88.94
2019-01-14T02:29:19.519Z,89.00
2019-01-14T02:33:20.522Z,89.11
2019-01-14T02:37:22.019Z,89.28
2019-01-14T02:41:22.983Z,89.38
2019-01-14T02:45:24.045Z,89.46
2019-01-14T02:49:25.014Z,89.47
2019-01-14T02:53:26.860Z,89.53
2019-01-14T02:57:28.386Z,89.52
2019-01-14T03:01:30.114Z,89.47
2019-01-14T03:05:31.082Z,89.33
2019-01-14T03:09:32.319Z,89.36
2019-01-14T03:13:33.494Z,89.34
2019-01-14T03:17:34.751Z,89.45
2019-01-14T03:21:35.914Z,89.39
2019-01-14T03:25:40.194Z,89.49
2019-01-14T03:29:41.456Z,89.38
2019-01-14T03:33:42.456Z,89.40
2019-01-14T03:37:43.519Z,89.44
2019-01-14T03:41:44.527Z,89.46
2019-01-14T03:45:45.469Z,89.48
2019-01-14T03:49:46.502Z,89.52
2019-01-14T03:53:47.487Z,89.56
2019-01-14T03:57:48.703Z,89.51
2019-01-14T04:01:49.693Z,89.56
2019-01-14T04:05:50.711Z,89.63
2019-01-14T04:09:51.672Z,89.62
2019-01-14T04:13:52.867Z,89.60
2019-01-14T04:17:54.035Z,89.63
2019-01-14T04:21:55.079Z,89.67
2019-01-14T04:25:57.685Z,89.76
2019-01-14T04:30:03.018Z,89.73
2019-01-14T04:34:04.291Z,89.75
2019-01-14T04:38:05.581Z,89.73
2019-01-14T04:42:07.107Z,89.72
2019-01-14T04:46:08.697Z,89.71
2019-01-14T04:50:11.914Z,89.74
2019-01-14T04:54:13.219Z,89.74
2019-01-14T04:58:14.445Z,89.77
2019-01-14T05:02:16.057Z,89.82
2019-01-14T05:06:17.587Z,89.78
2019-01-14T05:10:19.310Z,89.76
2019-01-14T05:14:20.600Z,89.83
2019-01-14T05:18:22.279Z,89.83
2019-01-14T05:22:23.514Z,89.82
2019-01-14T05:26:24.812Z,89.81
2019-01-14T05:30:25.795Z,89.84
2019-01-14T05:34:26.864Z,89.86
2019-01-14T05:38:28.388Z,89.89
2019-01-14T05:42:29.643Z,89.92
2019-01-14T05:46:30.785Z,89.88
2019-01-14T05:50:31.972Z,89.92
2019-01-14T05:54:33.163Z,89.97
2019-01-14T05:58:34.441Z,89.95
2019-01-14T06:02:35.711Z,89.93
2019-01-14T06:06:36.916Z,89.95
2019-01-14T06:10:38.107Z,89.97
2019-01-14T06:14:39.361Z,89.97
2019-01-14T06:18:40.756Z,90.02
2019-01-14T06:22:43.354Z,89.97
2019-01-14T06:26:44.455Z,90.06
2019-01-14T06:30:45.706Z,90.01
2019-01-14T06:34:47.134Z,90.04
2019-01-14T06:38:48.314Z,90.05
2019-01-14T06:42:49.650Z,90.05
2019-01-14T06:46:51.011Z,90.09
2019-01-14T06:50:52.335Z,90.11
2019-01-14T06:54:53.706Z,90.08
2019-01-14T06:58:55.043Z,90.00
2019-01-14T07:02:56.466Z,89.94
2019-01-14T07:06:57.767Z,89.92
2019-01-14T07:10:59.067Z,89.90
2019-01-14T07:15:00.294Z,89.91
2019-01-14T07:19:01.541Z,89.94
2019-01-14T07:23:02.797Z,89.88
2019-01-14T07:27:05.568Z,89.88
2019-01-14T07:31:06.750Z,89.83
2019-01-14T07:35:07.931Z,89.83
2019-01-14T07:39:10.209Z,89.78
2019-01-14T07:43:11.494Z,89.76
2019-01-14T07:47:12.697Z,89.77
2019-01-14T07:51:13.885Z,89.74
2019-01-14T07:55:15.081Z,89.75
2019-01-14T07:59:16.381Z,89.75
2019-01-14T08:03:17.561Z,89.73
2019-01-14T08:07:19.345Z,89.77
2019-01-14T08:11:20.544Z,89.69
2019-01-14T08:15:22.964Z,89.78
2019-01-14T08:19:24.194Z,89.71
2019-01-14T08:23:25.416Z,89.76
2019-01-14T08:27:26.559Z,89.63
2019-01-14T08:31:28.981Z,89.58
2019-01-14T08:35:29.961Z,89.48
2019-01-14T08:39:31.011Z,89.48
2019-01-14T08:43:34.524Z,89.14
2019-01-14T08:47:35.543Z,89.09
2019-01-14T08:51:36.584Z,89.01
2019-01-14T08:55:37.609Z,88.83
2019-01-14T08:59:38.726Z,88.54
2019-01-14T09:03:41.288Z,88.12
2019-01-14T09:07:42.314Z,88.19
2019-01-14T09:11:43.373Z,88.17
2019-01-14T09:15:44.481Z,88.08
2019-01-14T09:19:45.502Z,87.79
2019-01-14T09:23:46.467Z,87.88
2019-01-14T09:27:47.542Z,87.16
2019-01-14T09:31:48.727Z,86.91
2019-01-14T09:35:50.203Z,86.49
2019-01-14T09:39:51.457Z,86.50
2019-01-14T09:43:52.639Z,86.32
2019-01-14T09:47:53.683Z,85.94
2019-01-14T09:51:54.711Z,85.39
2019-01-14T09:55:55.697Z,85.09
2019-01-14T09:59:56.742Z,85.22
2019-01-14T10:03:58.258Z,84.95
2019-01-14T10:07:59.264Z,85.10
2019-01-14T10:12:00.283Z,84.62
2019-01-14T10:16:01.338Z,84.96
2019-01-14T10:20:02.619Z,84.81
2019-01-14T10:24:03.760Z,84.86
2019-01-14T10:28:04.733Z,84.34
2019-01-14T10:32:05.768Z,84.19
2019-01-14T10:36:07.098Z,84.41
2019-01-14T10:40:10.572Z,84.41
2019-01-14T10:44:11.559Z,84.14
2019-01-14T10:48:12.591Z,84.29
2019-01-14T10:52:13.669Z,84.71
2019-01-14T10:56:14.769Z,84.74
2019-01-14T11:00:18.692Z,84.74
2019-01-14T11:04:19.817Z,84.67
2019-01-14T11:08:20.814Z,84.63
2019-01-14T11:12:21.953Z,84.62
2019-01-14T11:16:23.403Z,84.58
2019-01-14T11:20:29.795Z,84.25
2019-01-14T11:24:50.088Z,83.30
2019-01-14T11:28:51.175Z,83.92
2019-01-14T11:32:52.174Z,83.65
2019-01-14T11:36:53.190Z,83.83
2019-01-14T11:40:54.150Z,83.99
2019-01-14T11:44:55.313Z,83.94
2019-01-14T11:48:57.419Z,84.08
2019-01-14T11:52:58.425Z,83.79
2019-01-14T11:56:59.418Z,83.81
2019-01-14T12:01:00.471Z,83.95
2019-01-14T12:05:01.630Z,83.80
2019-01-14T12:09:03.284Z,83.38
2019-01-14T12:13:05.912Z,83.41
2019-01-14T12:17:07.037Z,83.45
2019-01-14T12:21:08.012Z,83.46
2019-01-14T12:25:09.323Z,83.33
2019-01-14T12:29:10.291Z,82.92
2019-01-14T12:33:11.333Z,83.00
2019-01-14T12:37:12.311Z,82.62
2019-01-14T12:41:13.482Z,83.04
2019-01-14T12:45:14.511Z,82.98
2019-01-14T12:49:15.637Z,82.70
2019-01-14T12:53:16.572Z,82.77
2019-01-14T12:57:17.673Z,83.02
2019-01-14T13:01:18.923Z,83.14
2019-01-14T13:05:20.398Z,83.02
2019-01-14T13:09:26.703Z,83.72
2019-01-14T13:13:24.529Z,83.15
2019-01-14T13:17:25.641Z,83.17
2019-01-14T13:21:26.986Z,83.33
2019-01-14T13:25:27.984Z,83.12
2019-01-14T13:29:29.087Z,83.25
2019-01-14T13:33:30.097Z,83.62
2019-01-14T13:37:31.089Z,83.59
2019-01-14T13:41:32.054Z,83.73
2019-01-14T13:45:33.040Z,83.79
2019-01-14T13:49:34.008Z,83.93
2019-01-14T13:53:35.418Z,83.70
2019-01-14T13:57:36.871Z,83.87
2019-01-14T14:01:38.111Z,83.83
2019-01-14T14:05:39.336Z,84.04
2019-01-14T14:09:41.318Z,84.07
2019-01-14T14:13:42.904Z,84.06
2019-01-14T14:17:43.936Z,84.09
2019-01-14T14:21:44.921Z,84.11
2019-01-14T14:25:46.086Z,84.33
2019-01-14T14:29:47.056Z,84.48
2019-01-14T14:33:48.088Z,84.61
2019-01-14T14:37:49.135Z,84.45
2019-01-14T14:41:51.348Z,84.34
2019-01-14T14:45:52.299Z,84.29
2019-01-14T14:49:53.301Z,84.29
2019-01-14T14:53:54.442Z,84.35
2019-01-14T14:58:00.417Z,84.53
2019-01-14T15:02:01.389Z,84.58
2019-01-14T15:06:02.572Z,84.62
2019-01-14T15:10:03.766Z,84.93
2019-01-14T15:14:05.014Z,84.76
2019-01-14T15:18:05.982Z,85.01
2019-01-14T15:22:07.016Z,85.14
2019-01-14T15:26:08.199Z,85.35
2019-01-14T15:30:15.869Z,85.31
2019-01-14T15:34:16.962Z,85.44
2019-01-14T15:38:18.027Z,86.45
2019-01-14T15:42:19.009Z,86.03
2019-01-14T15:46:20.051Z,85.80
2019-01-14T15:50:21.213Z,85.64
2019-01-14T15:54:22.236Z,86.29
2019-01-14T15:58:23.202Z,86.22
2019-01-14T16:02:24.572Z,85.94
2019-01-14T16:06:25.543Z,87.36
2019-01-14T16:10:27.746Z,87.20
2019-01-14T16:14:28.752Z,87.59
2019-01-14T16:18:29.872Z,87.04
2019-01-14T16:22:30.898Z,86.93
2019-01-14T16:26:31.950Z,87.46
2019-01-14T16:30:32.906Z,86.95
2019-01-14T16:34:34.102Z,87.19
2019-01-14T16:38:35.103Z,86.97
2019-01-14T16:42:36.192Z,87.11
2019-01-14T16:46:37.169Z,87.17
2019-01-14T16:50:38.192Z,87.31
2019-01-14T16:54:39.273Z,86.80
2019-01-14T16:58:40.308Z,86.72
2019-01-14T17:02:41.267Z,86.82
2019-01-14T17:06:43.621Z,87.45
2019-01-14T17:10:44.643Z,87.11
2019-01-14T17:14:45.752Z,86.97
2019-01-14T17:18:46.717Z,87.25
2019-01-14T17:22:47.736Z,87.69
2019-01-14T17:26:48.739Z,87.50
2019-01-14T17:30:49.794Z,87.58
2019-01-14T17:34:50.727Z,87.23
2019-01-14T17:38:51.797Z,87.55
2019-01-14T17:42:52.858Z,88.58
2019-01-14T17:46:54.061Z,88.40
2019-01-14T17:50:55.036Z,88.14
2019-01-14T17:54:56.077Z,87.60
2019-01-14T17:58:57.006Z,87.63
2019-01-14T18:02:58.146Z,87.78
2019-01-14T18:06:59.515Z,87.69
2019-01-14T18:11:02.060Z,87.92
2019-01-14T18:15:03.163Z,87.55
2019-01-14T18:19:04.378Z,87.11
2019-01-14T18:23:06.647Z,86.97
2019-01-14T18:27:07.776Z,87.37
2019-01-14T18:31:08.791Z,87.94
2019-01-14T18:35:09.853Z,87.73
2019-01-14T18:39:10.868Z,87.88
2019-01-14T18:43:12.132Z,87.55
2019-01-14T18:47:13.195Z,87.32
2019-01-14T18:51:14.196Z,87.27
2019-01-14T18:55:15.144Z,87.12
2019-01-14T18:59:16.595Z,86.83
2019-01-14T19:03:17.544Z,86.67
2019-01-14T19:07:18.916Z,86.59
2019-01-14T19:11:19.952Z,86.55
2019-01-14T19:15:22.122Z,86.29
2019-01-14T19:19:23.197Z,86.06
2019-01-14T19:23:24.252Z,85.94
2019-01-14T19:27:25.239Z,85.72
2019-01-14T19:31:26.299Z,85.55
2019-01-14T19:35:27.291Z,85.34
2019-01-14T19:39:28.326Z,84.92
2019-01-14T19:43:29.306Z,85.04
2019-01-14T19:47:30.554Z,85.03
2019-01-14T19:51:31.557Z,85.27
2019-01-14T19:55:33.617Z,85.36
2019-01-14T19:59:35.127Z,85.38
2019-01-14T20:03:36.194Z,85.45
2019-01-14T20:07:37.178Z,85.49
2019-01-14T20:11:38.785Z,85.48
2019-01-14T20:15:39.812Z,85.48
2019-01-14T20:19:41.108Z,85.51
2019-01-14T20:23:42.250Z,85.82
2019-01-14T20:27:43.254Z,86.13
2019-01-14T20:31:44.250Z,86.22
2019-01-14T20:35:45.385Z,85.95
2019-01-14T20:39:46.396Z,86.12
2019-01-14T20:43:47.616Z,86.13
2019-01-14T20:47:48.602Z,86.14
2019-01-14T20:51:49.658Z,86.30
2019-01-14T20:55:50.649Z,86.30
2019-01-14T20:59:51.665Z,86.21
2019-01-14T21:03:52.639Z,86.41
2019-01-14T21:07:53.674Z,86.50
2019-01-14T21:11:54.698Z,86.53
2019-01-14T21:16:02.557Z,86.86
2019-01-14T21:19:58.414Z,86.80
2019-01-14T21:23:59.657Z,86.60
2019-01-14T21:28:00.874Z,86.27
2019-01-14T21:32:02.958Z,86.22
2019-01-14T21:36:04.499Z,86.26
2019-01-14T21:40:06.121Z,86.29
2019-01-14T21:44:07.578Z,85.85
2019-01-14T21:48:16.945Z,85.63
2019-01-14T21:52:12.374Z,85.98
2019-01-14T21:56:13.643Z,85.63
2019-01-14T22:00:16.979Z,85.50
2019-01-14T22:04:18.530Z,85.50
2019-01-14T22:08:20.025Z,85.63
2019-01-14T22:12:21.161Z,86.07
2019-01-14T22:16:22.224Z,86.76
2019-01-14T22:20:28.359Z,86.26
2019-01-14T22:24:31.136Z,86.16
2019-01-14T22:28:32.367Z,86.18
2019-01-14T22:32:33.403Z,86.53
2019-01-14T22:36:34.394Z,86.53
2019-01-14T22:40:35.377Z,87.11
2019-01-14T22:44:36.390Z,87.33
2019-01-14T22:48:37.340Z,87.23
2019-01-14T22:52:38.513Z,87.25
2019-01-14T22:56:40.028Z,86.81
2019-01-14T23:01:19.417Z,86.43
2019-01-14T23:05:20.913Z,86.17
2019-01-14T23:09:21.932Z,86.06
2019-01-14T23:13:23.437Z,86.06
2019-01-14T23:17:25.412Z,86.47
2019-01-14T23:21:26.362Z,86.28
2019-01-14T23:25:29.679Z,86.14
2019-01-14T23:29:30.817Z,86.33
2019-01-14T23:33:31.917Z,86.27
2019-01-14T23:37:32.905Z,86.34
2019-01-14T23:41:34.508Z,85.81
2019-01-14T23:45:35.677Z,85.89
2019-01-14T23:49:38.459Z,86.83
2019-01-14T23:53:39.641Z,87.10
2019-01-14T23:57:40.665Z,88.20
